createdAt,value
2023-03-04T00:00:40.371Z,996.25
2023-03-04T00:01:40.462Z,996.24
2023-03-04T00:02:40.190Z,996.27
2023-03-04T00:03:40.100Z,996.29
2023-03-04T00:04:40.021Z,996.26
2023-03-04T00:05:39.919Z,996.29
2023-03-04T00:06:39.828Z,996.30
2023-03-04T00:07:39.741Z,996.30
2023-03-04T00:08:39.680Z,996.29
2023-03-04T00:09:39.567Z,996.28
2023-03-04T00:10:39.470Z,996.31
2023-03-04T00:11:39.396Z,996.31
2023-03-04T00:12:39.292Z,996.33
2023-03-04T00:13:39.328Z,996.32
2023-03-04T00:14:39.112Z,996.28
2023-03-04T00:15:39.023Z,996.32
2023-03-04T00:16:39.031Z,996.32
2023-03-04T00:17:38.846Z,996.33
2023-03-04T00:18:38.756Z,996.31
2023-03-04T00:19:38.666Z,996.35
2023-03-04T00:20:38.575Z,996.37
2023-03-04T00:21:38.498Z,996.37
2023-03-04T00:22:38.397Z,996.36
2023-03-04T00:23:38.305Z,996.37
2023-03-04T00:24:38.234Z,996.37
2023-03-04T00:25:38.327Z,996.38
2023-03-04T00:26:38.051Z,996.36
2023-03-04T00:27:38.195Z,996.37
2023-03-04T00:28:37.855Z,996.39
2023-03-04T00:29:37.773Z,996.32
2023-03-04T00:30:37.675Z,996.40
2023-03-04T00:31:37.699Z,996.38
2023-03-04T00:32:37.717Z,996.41
2023-03-04T00:33:37.405Z,996.38
2023-03-04T00:34:37.314Z,996.37
2023-03-04T00:35:37.246Z,996.39
2023-03-04T00:36:37.134Z,996.42
2023-03-04T00:37:37.048Z,996.40
2023-03-04T00:38:37.065Z,996.38
2023-03-04T00:39:36.865Z,996.37
2023-03-04T00:40:36.796Z,996.39
2023-03-04T00:41:36.702Z,996.40
2023-03-04T00:42:36.594Z,996.42
2023-03-04T00:43:36.506Z,996.43
2023-03-04T00:44:36.415Z,996.46
2023-03-04T00:45:36.430Z,996.43
2023-03-04T00:46:36.236Z,996.43
2023-03-04T00:47:36.149Z,996.39
2023-03-04T00:48:36.055Z,996.43
2023-03-04T00:49:35.965Z,996.43
2023-03-04T00:50:35.882Z,996.42
2023-03-04T00:51:35.786Z,996.40
2023-03-04T00:52:36.043Z,996.42
2023-03-04T00:53:35.605Z,996.39
2023-03-04T00:54:35.512Z,996.39
2023-03-04T00:55:35.442Z,996.43
2023-03-04T00:56:35.362Z,996.42
2023-03-04T00:57:35.246Z,996.41
2023-03-04T00:58:35.155Z,996.42
2023-03-04T00:59:35.320Z,996.40
2023-03-04T01:00:34.976Z,996.42
2023-03-04T01:01:35.111Z,996.43
2023-03-04T01:02:34.845Z,996.39
2023-03-04T01:03:34.707Z,996.37
2023-03-04T01:04:34.667Z,996.40
2023-03-04T01:05:34.522Z,996.41
2023-03-04T01:06:34.437Z,996.37
2023-03-04T01:07:34.343Z,996.36
2023-03-04T01:08:34.258Z,996.37
2023-03-04T01:09:34.165Z,996.40
2023-03-04T01:10:34.073Z,996.33
2023-03-04T01:11:33.987Z,996.36
2023-03-04T01:12:33.912Z,996.31
2023-03-04T01:13:33.951Z,996.27
2023-03-04T01:14:33.910Z,996.32
2023-03-04T01:15:33.632Z,996.34
2023-03-04T01:16:33.549Z,996.32
2023-03-04T01:17:33.499Z,996.29
2023-03-04T01:18:33.347Z,996.33
2023-03-04T01:19:33.263Z,996.25
2023-03-04T01:20:33.175Z,996.24
2023-03-04T01:21:33.080Z,996.25
2023-03-04T01:22:32.985Z,996.23
2023-03-04T01:23:32.900Z,996.25
2023-03-04T01:24:32.808Z,996.26
2023-03-04T01:25:32.718Z,996.22
2023-03-04T01:26:32.632Z,996.19
2023-03-04T01:27:32.536Z,996.20
2023-03-04T01:28:32.468Z,996.21
2023-03-04T01:29:32.358Z,996.16
2023-03-04T01:30:32.333Z,996.21
2023-03-04T01:31:32.184Z,996.17
2023-03-04T01:32:32.177Z,996.14
2023-03-04T01:33:32.005Z,996.10
2023-03-04T01:34:31.910Z,996.10
2023-03-04T01:35:31.880Z,996.10
2023-03-04T01:36:31.729Z,996.10
2023-03-04T01:37:31.838Z,996.10
2023-03-04T01:38:31.546Z,996.10
2023-03-04T01:39:31.461Z,996.11
2023-03-04T01:40:31.363Z,996.12
2023-03-04T01:41:31.275Z,996.13
2023-03-04T01:42:31.337Z,996.10
2023-03-04T01:43:31.099Z,996.07
2023-03-04T01:44:31.026Z,996.07
2023-03-04T01:45:30.918Z,996.05
2023-03-04T01:46:30.910Z,996.04
2023-03-04T01:47:30.736Z,996.02
2023-03-04T01:48:30.647Z,996.03
2023-03-04T01:49:30.566Z,996.02
2023-03-04T01:50:30.469Z,996.03
2023-03-04T01:51:30.380Z,996.06
2023-03-04T01:52:30.287Z,995.98
2023-03-04T01:53:30.200Z,996.00
2023-03-04T01:54:30.109Z,995.97
2023-03-04T01:55:30.023Z,996.01
2023-03-04T01:56:29.932Z,995.97
2023-03-04T01:57:29.841Z,996.00
2023-03-04T01:58:29.751Z,995.98
2023-03-04T01:59:29.664Z,995.99
2023-03-04T02:00:29.597Z,995.97
2023-03-04T02:01:29.539Z,995.96
2023-03-04T02:02:29.695Z,995.96
2023-03-04T02:03:29.304Z,995.96
2023-03-04T02:04:29.313Z,995.96
2023-03-04T02:05:29.125Z,995.96
2023-03-04T02:06:29.033Z,995.98
2023-03-04T02:07:28.944Z,995.93
2023-03-04T02:08:28.855Z,995.93
2023-03-04T02:09:28.964Z,995.94
2023-03-04T02:10:28.678Z,995.91
2023-03-04T02:11:28.589Z,995.92
2023-03-04T02:12:28.499Z,995.87
2023-03-04T02:13:28.410Z,995.88
2023-03-04T02:14:28.320Z,995.87
2023-03-04T02:15:28.229Z,995.85
2023-03-04T02:16:28.159Z,995.85
2023-03-04T02:17:28.057Z,995.78
2023-03-04T02:18:27.963Z,995.82
2023-03-04T02:19:27.875Z,995.82
2023-03-04T02:20:27.986Z,995.79
2023-03-04T02:21:27.695Z,995.79
2023-03-04T02:22:27.619Z,995.78
2023-03-04T02:23:27.516Z,995.80
2023-03-04T02:24:27.427Z,995.81
2023-03-04T02:25:27.343Z,995.79
2023-03-04T02:26:27.258Z,995.74
2023-03-04T02:27:27.168Z,995.73
2023-03-04T02:28:27.071Z,995.72
2023-03-04T02:29:26.982Z,995.71
2023-03-04T02:30:26.895Z,995.69
2023-03-04T02:31:26.874Z,995.71
2023-03-04T02:32:26.821Z,995.71
2023-03-04T02:33:26.633Z,995.68
2023-03-04T02:34:26.538Z,995.69
2023-03-04T02:35:26.479Z,995.73
2023-03-04T02:36:26.367Z,995.73
2023-03-04T02:37:26.274Z,995.67
2023-03-04T02:38:26.182Z,995.68
2023-03-04T02:39:26.093Z,995.69
2023-03-04T02:40:26.008Z,995.71
2023-03-04T02:41:25.919Z,995.67
2023-03-04T02:42:25.834Z,995.67
2023-03-04T02:43:25.739Z,995.65
2023-03-04T02:44:25.902Z,995.67
2023-03-04T02:45:25.560Z,995.63
2023-03-04T02:46:25.534Z,995.63
2023-03-04T02:47:25.385Z,995.59
2023-03-04T02:48:25.314Z,995.66
2023-03-04T02:49:25.208Z,995.57
2023-03-04T02:50:25.121Z,995.60
2023-03-04T02:51:25.032Z,995.58
2023-03-04T02:52:24.952Z,995.59
2023-03-04T02:53:24.853Z,995.58
2023-03-04T02:54:24.766Z,995.58
2023-03-04T02:55:24.676Z,995.62
2023-03-04T02:56:24.602Z,995.59
2023-03-04T02:57:24.503Z,995.55
2023-03-04T02:58:24.412Z,995.57
2023-03-04T02:59:24.329Z,995.58
2023-03-04T03:00:24.235Z,995.55
2023-03-04T03:01:24.219Z,995.55
2023-03-04T03:02:24.058Z,995.54
2023-03-04T03:03:23.976Z,995.55
2023-03-04T03:04:23.905Z,995.59
2023-03-04T03:05:23.802Z,995.54
2023-03-04T03:06:23.706Z,995.55
2023-03-04T03:07:23.620Z,995.52
2023-03-04T03:08:23.528Z,995.50
2023-03-04T03:09:23.438Z,995.51
2023-03-04T03:10:23.353Z,995.51
2023-03-04T03:11:23.263Z,995.55
2023-03-04T03:12:23.175Z,995.50
2023-03-04T03:13:23.086Z,995.49
2023-03-04T03:14:23.038Z,995.48
2023-03-04T03:15:22.978Z,995.52
2023-03-04T03:16:22.990Z,995.54
2023-03-04T03:17:22.739Z,995.56
2023-03-04T03:18:22.645Z,995.55
2023-03-04T03:19:22.554Z,995.58
2023-03-04T03:20:22.486Z,995.54
2023-03-04T03:21:22.380Z,995.58
2023-03-04T03:22:22.290Z,995.53
2023-03-04T03:23:22.203Z,995.56
2023-03-04T03:24:22.112Z,995.55
2023-03-04T03:25:22.026Z,995.58
2023-03-04T03:26:21.946Z,995.55
2023-03-04T03:27:21.847Z,995.59
2023-03-04T03:28:21.761Z,995.59
2023-03-04T03:29:21.675Z,995.59
2023-03-04T03:30:21.586Z,995.58
2023-03-04T03:31:21.542Z,995.62
2023-03-04T03:32:21.427Z,995.56
2023-03-04T03:33:21.317Z,995.58
2023-03-04T03:34:21.232Z,995.59
2023-03-04T03:35:21.166Z,995.60
2023-03-04T03:36:21.144Z,995.58
2023-03-04T03:37:20.963Z,995.59
2023-03-04T03:38:20.875Z,995.60
2023-03-04T03:39:20.787Z,995.56
2023-03-04T03:40:21.098Z,995.55
2023-03-04T03:41:20.609Z,995.56
2023-03-04T03:42:20.521Z,995.56
2023-03-04T03:43:20.484Z,995.54
2023-03-04T03:44:20.344Z,995.55
2023-03-04T03:45:20.255Z,995.50
2023-03-04T03:46:20.170Z,995.50
2023-03-04T03:47:20.083Z,995.51
2023-03-04T03:48:19.988Z,995.49
2023-03-04T03:49:19.904Z,995.50
2023-03-04T03:50:19.817Z,995.51
2023-03-04T03:51:19.725Z,995.50
2023-03-04T03:52:19.661Z,995.50
2023-03-04T03:53:19.572Z,995.52
2023-03-04T03:54:19.462Z,995.51
2023-03-04T03:55:19.373Z,995.52
2023-03-04T03:56:19.290Z,995.48
2023-03-04T03:57:19.198Z,995.52
2023-03-04T03:58:19.109Z,995.55
2023-03-04T03:59:19.020Z,995.53
2023-03-04T04:00:18.942Z,995.54
2023-03-04T04:01:18.843Z,995.54
2023-03-04T04:02:18.951Z,995.52
2023-03-04T04:03:18.769Z,995.52
2023-03-04T04:04:18.583Z,995.50
2023-03-04T04:05:18.491Z,995.48
2023-03-04T04:06:18.403Z,995.46
2023-03-04T04:07:18.318Z,995.52
2023-03-04T04:08:18.247Z,995.53
2023-03-04T04:09:18.139Z,995.49
2023-03-04T04:10:18.053Z,995.52
2023-03-04T04:11:17.965Z,995.50
2023-03-04T04:12:17.876Z,995.46
2023-03-04T04:13:17.785Z,995.43
2023-03-04T04:14:17.704Z,995.50
2023-03-04T04:15:17.611Z,995.48
2023-03-04T04:16:17.579Z,995.48
2023-03-04T04:17:17.433Z,995.46
2023-03-04T04:18:17.548Z,995.49
2023-03-04T04:19:17.256Z,995.47
2023-03-04T04:20:17.168Z,995.48
2023-03-04T04:21:17.100Z,995.45
2023-03-04T04:22:17.006Z,995.45
2023-03-04T04:23:16.906Z,995.46
2023-03-04T04:24:16.836Z,995.45
2023-03-04T04:25:16.727Z,995.47
2023-03-04T04:26:16.650Z,995.48
2023-03-04T04:27:16.551Z,995.46
2023-03-04T04:28:16.464Z,995.47
2023-03-04T04:29:16.374Z,995.49
2023-03-04T04:30:16.300Z,995.45
2023-03-04T04:31:16.397Z,995.43
2023-03-04T04:32:16.163Z,995.43
2023-03-04T04:33:16.020Z,995.42
2023-03-04T04:34:15.941Z,995.42
2023-03-04T04:35:15.842Z,995.45
2023-03-04T04:36:15.755Z,995.41
2023-03-04T04:37:15.667Z,995.43
2023-03-04T04:38:15.581Z,995.41
2023-03-04T04:39:15.490Z,995.44
2023-03-04T04:40:15.673Z,995.39
2023-03-04T04:41:15.312Z,995.45
2023-03-04T04:42:15.235Z,995.43
2023-03-04T04:43:15.135Z,995.41
2023-03-04T04:44:15.050Z,995.45
2023-03-04T04:45:14.982Z,995.41
2023-03-04T04:46:14.933Z,995.44
2023-03-04T04:47:14.782Z,995.43
2023-03-04T04:48:14.701Z,995.42
2023-03-04T04:49:14.625Z,995.42
2023-03-04T04:50:14.516Z,995.40
2023-03-04T04:51:14.441Z,995.43
2023-03-04T04:52:14.346Z,995.43
2023-03-04T04:53:14.266Z,995.39
2023-03-04T04:54:14.167Z,995.42
2023-03-04T04:55:14.078Z,995.40
2023-03-04T04:56:14.032Z,995.39
2023-03-04T04:57:13.900Z,995.35
2023-03-04T04:58:13.811Z,995.35
2023-03-04T04:59:13.725Z,995.35
2023-03-04T05:00:13.636Z,995.38
2023-03-04T05:01:13.589Z,995.34
2023-03-04T05:02:13.624Z,995.37
2023-03-04T05:03:13.447Z,995.36
2023-03-04T05:04:13.292Z,995.37
2023-03-04T05:05:13.199Z,995.37
2023-03-04T05:06:13.122Z,995.38
2023-03-04T05:07:13.037Z,995.43
2023-03-04T05:08:12.939Z,995.37
2023-03-04T05:09:12.848Z,995.43
2023-03-04T05:10:12.764Z,995.42
2023-03-04T05:11:12.686Z,995.39
2023-03-04T05:12:12.637Z,995.44
2023-03-04T05:13:12.496Z,995.46
2023-03-04T05:14:12.411Z,995.40
2023-03-04T05:15:12.321Z,995.37
2023-03-04T05:16:12.241Z,995.40
2023-03-04T05:17:12.148Z,995.37
2023-03-04T05:18:12.061Z,995.38
2023-03-04T05:19:12.023Z,995.37
2023-03-04T05:20:11.891Z,995.36
2023-03-04T05:21:11.795Z,995.38
2023-03-04T05:22:11.709Z,995.39
2023-03-04T05:23:11.622Z,995.38
2023-03-04T05:24:11.580Z,995.37
2023-03-04T05:25:11.442Z,995.36
2023-03-04T05:26:11.356Z,995.31
2023-03-04T05:27:11.271Z,995.34
2023-03-04T05:28:11.199Z,995.32
2023-03-04T05:29:11.094Z,995.30
2023-03-04T05:30:11.008Z,995.29
2023-03-04T05:32:10.919Z,995.32
2023-03-04T05:33:10.889Z,995.29
2023-03-04T05:34:10.650Z,995.31
2023-03-04T05:35:10.570Z,995.32
2023-03-04T05:36:10.476Z,995.30
2023-03-04T05:37:10.386Z,995.29
2023-03-04T05:38:10.301Z,995.27
2023-03-04T05:39:10.214Z,995.30
2023-03-04T05:40:10.151Z,995.30
2023-03-04T05:41:10.034Z,995.28
2023-03-04T05:42:09.969Z,995.30
2023-03-04T05:43:09.861Z,995.28
2023-03-04T05:44:09.799Z,995.31
2023-03-04T05:45:09.682Z,995.28
2023-03-04T05:46:09.610Z,995.29
2023-03-04T05:47:09.517Z,995.29
2023-03-04T05:48:09.419Z,995.30
2023-03-04T05:49:09.335Z,995.28
2023-03-04T05:50:09.242Z,995.30
2023-03-04T05:51:09.157Z,995.36
2023-03-04T05:52:09.066Z,995.32
2023-03-04T05:53:08.981Z,995.30
2023-03-04T05:54:08.901Z,995.31
2023-03-04T05:55:08.805Z,995.31
2023-03-04T05:56:08.717Z,995.33
2023-03-04T05:57:08.633Z,995.34
2023-03-04T05:58:08.540Z,995.35
2023-03-04T05:59:08.453Z,995.36
2023-03-04T06:00:08.390Z,995.36
2023-03-04T06:01:08.276Z,995.31
2023-03-04T06:02:08.190Z,995.32
2023-03-04T06:03:08.104Z,995.32
2023-03-04T06:04:08.119Z,995.32
2023-03-04T06:05:07.927Z,995.36
2023-03-04T06:06:07.836Z,995.35
2023-03-04T06:07:07.750Z,995.41
2023-03-04T06:08:07.663Z,995.38
2023-03-04T06:09:07.580Z,995.37
2023-03-04T06:10:07.505Z,995.43
2023-03-04T06:11:07.399Z,995.43
2023-03-04T06:12:07.311Z,995.42
2023-03-04T06:13:07.224Z,995.46
2023-03-04T06:14:07.195Z,995.48
2023-03-04T06:15:07.067Z,995.47
2023-03-04T06:16:07.034Z,995.47
2023-03-04T06:17:06.875Z,995.46
2023-03-04T06:18:06.783Z,995.45
2023-03-04T06:19:06.698Z,995.51
2023-03-04T06:20:06.609Z,995.48
2023-03-04T06:21:06.523Z,995.50
2023-03-04T06:22:06.436Z,995.55
2023-03-04T06:23:06.352Z,995.56
2023-03-04T06:24:06.261Z,995.57
2023-03-04T06:25:06.475Z,995.51
2023-03-04T06:26:06.083Z,995.57
2023-03-04T06:27:05.996Z,995.59
2023-03-04T06:28:06.066Z,995.60
2023-03-04T06:29:05.828Z,995.64
2023-03-04T06:30:05.758Z,995.63
2023-03-04T06:31:05.749Z,995.66
2023-03-04T06:32:05.699Z,995.64
2023-03-04T06:33:05.477Z,995.64
2023-03-04T06:34:05.382Z,995.70
2023-03-04T06:35:05.296Z,995.70
2023-03-04T06:36:05.208Z,995.69
2023-03-04T06:37:05.125Z,995.68
2023-03-04T06:38:05.029Z,995.69
2023-03-04T06:39:05.152Z,995.68
2023-03-04T06:40:04.859Z,995.70
2023-03-04T06:41:04.770Z,995.72
2023-03-04T06:42:04.694Z,995.76
2023-03-04T06:43:04.599Z,995.77
2023-03-04T06:44:04.508Z,995.77
2023-03-04T06:45:04.433Z,995.78
2023-03-04T06:46:04.331Z,995.78
2023-03-04T06:47:04.242Z,995.77
2023-03-04T06:48:04.176Z,995.81
2023-03-04T06:49:04.066Z,995.83
2023-03-04T06:50:03.982Z,995.83
2023-03-04T06:51:03.899Z,995.84
2023-03-04T06:52:03.806Z,995.83
2023-03-04T06:53:03.720Z,995.84
2023-03-04T06:54:03.643Z,995.90
2023-03-04T06:55:03.549Z,995.91
2023-03-04T06:56:03.463Z,995.90
2023-03-04T06:57:03.368Z,995.93
2023-03-04T06:58:03.283Z,995.89
2023-03-04T06:59:03.193Z,995.93
2023-03-04T07:00:03.114Z,995.93
2023-03-04T07:01:03.086Z,995.94
2023-03-04T07:02:02.942Z,995.95
2023-03-04T07:03:02.846Z,995.97
2023-03-04T07:04:02.838Z,995.99
2023-03-04T07:05:02.675Z,996.00
2023-03-04T07:06:02.936Z,996.02
2023-03-04T07:07:02.496Z,995.98
2023-03-04T07:08:02.412Z,996.02
2023-03-04T07:09:02.322Z,996.03
2023-03-04T07:10:02.250Z,996.00
2023-03-04T07:11:02.149Z,996.03
2023-03-04T07:12:02.064Z,996.01
2023-03-04T07:13:01.992Z,996.03
2023-03-04T07:14:01.885Z,996.02
2023-03-04T07:15:01.799Z,996.04
2023-03-04T07:16:01.790Z,996.04
2023-03-04T07:17:01.626Z,996.04
2023-03-04T07:18:01.539Z,996.06
2023-03-04T07:19:01.450Z,996.07
2023-03-04T07:20:01.384Z,996.09
2023-03-04T07:21:01.278Z,996.06
2023-03-04T07:22:01.196Z,996.08
2023-03-04T07:23:01.113Z,996.06
2023-03-04T07:24:01.017Z,996.09
2023-03-04T07:25:00.948Z,996.07
2023-03-04T07:26:00.849Z,996.09
2023-03-04T07:27:00.756Z,996.07
2023-03-04T07:28:00.668Z,996.06
2023-03-04T07:29:00.580Z,996.07
2023-03-04T07:30:00.517Z,996.07
2023-03-04T07:31:00.409Z,996.07
2023-03-04T07:32:00.437Z,996.09
2023-03-04T07:33:00.244Z,996.10
2023-03-04T07:34:00.146Z,996.08
2023-03-04T07:35:00.061Z,996.06
2023-03-04T07:36:00.041Z,996.09
2023-03-04T07:36:59.891Z,996.09
2023-03-04T07:37:59.801Z,996.09
2023-03-04T07:38:59.727Z,996.14
2023-03-04T07:39:59.636Z,996.15
2023-03-04T07:40:59.544Z,996.17
2023-03-04T07:41:59.457Z,996.13
2023-03-04T07:42:59.365Z,996.13
2023-03-04T07:43:59.305Z,996.15
2023-03-04T07:44:59.191Z,996.15
2023-03-04T07:45:59.172Z,996.13
2023-03-04T07:46:59.025Z,996.12
2023-03-04T07:47:58.937Z,996.14
2023-03-04T07:48:59.051Z,996.20
2023-03-04T07:49:58.769Z,996.20
2023-03-04T07:50:58.674Z,996.25
2023-03-04T07:51:58.605Z,996.22
2023-03-04T07:52:58.502Z,996.26
2023-03-04T07:53:58.426Z,996.25
2023-03-04T07:54:58.328Z,996.28
2023-03-04T07:55:58.241Z,996.29
2023-03-04T07:56:58.154Z,996.26
2023-03-04T07:57:58.070Z,996.25
2023-03-04T07:58:57.987Z,996.29
2023-03-04T07:59:58.195Z,996.27
2023-03-04T08:00:57.815Z,996.31
2023-03-04T08:01:57.727Z,996.27
2023-03-04T08:02:57.649Z,996.34
2023-03-04T08:03:57.608Z,996.31
2023-03-04T08:04:57.468Z,996.34
2023-03-04T08:05:57.428Z,996.34
2023-03-04T08:06:57.290Z,996.33
2023-03-04T08:07:57.433Z,996.31
2023-03-04T08:08:57.121Z,996.32
2023-03-04T08:09:57.032Z,996.34
2023-03-04T08:10:56.952Z,996.34
2023-03-04T08:11:56.859Z,996.36
2023-03-04T08:12:56.774Z,996.35
2023-03-04T08:13:56.692Z,996.33
2023-03-04T08:14:56.604Z,996.32
2023-03-04T08:15:56.567Z,996.31
2023-03-04T08:16:56.825Z,996.34
2023-03-04T08:17:56.349Z,996.35
2023-03-04T08:18:56.456Z,996.35
2023-03-04T08:19:56.170Z,996.32
2023-03-04T08:20:56.083Z,996.33
2023-03-04T08:21:56.047Z,996.35
2023-03-04T08:22:55.912Z,996.32
2023-03-04T08:23:55.860Z,996.36
2023-03-04T08:24:55.741Z,996.36
2023-03-04T08:25:55.666Z,996.36
2023-03-04T08:26:55.566Z,996.41
2023-03-04T08:27:55.489Z,996.38
2023-03-04T08:28:55.397Z,996.38
2023-03-04T08:29:55.415Z,996.36
2023-03-04T08:30:55.271Z,996.37
2023-03-04T08:31:55.286Z,996.42
2023-03-04T08:32:55.299Z,996.40
2023-03-04T08:33:54.966Z,996.39
2023-03-04T08:34:54.883Z,996.40
2023-03-04T08:35:54.832Z,996.39
2023-03-04T08:36:54.706Z,996.43
2023-03-04T08:37:54.676Z,996.40
2023-03-04T08:38:54.539Z,996.39
2023-03-04T08:39:54.472Z,996.38
2023-03-04T08:40:54.366Z,996.42
2023-03-04T08:41:54.280Z,996.43
2023-03-04T08:42:54.195Z,996.46
2023-03-04T08:43:54.108Z,996.44
2023-03-04T08:44:54.228Z,996.46
2023-03-04T08:45:53.984Z,996.45
2023-03-04T08:46:53.852Z,996.47
2023-03-04T08:47:54.020Z,996.44
2023-03-04T08:48:54.180Z,996.49
2023-03-04T08:49:53.596Z,996.48
2023-03-04T08:50:53.522Z,996.49
2023-03-04T08:51:53.426Z,996.56
2023-03-04T08:52:53.338Z,996.55
2023-03-04T08:53:53.258Z,996.55
2023-03-04T08:54:53.172Z,996.48
2023-03-04T08:55:53.105Z,996.55
2023-03-04T08:56:53.008Z,996.58
2023-03-04T08:57:52.917Z,996.58
2023-03-04T08:58:52.824Z,996.53
2023-03-04T08:59:52.939Z,996.62
2023-03-04T09:00:52.654Z,996.59
2023-03-04T09:01:52.622Z,996.62
2023-03-04T09:02:52.483Z,996.59
2023-03-04T09:03:52.464Z,996.58
2023-03-04T09:04:52.322Z,996.58
2023-03-04T09:05:52.232Z,996.58
2023-03-04T09:06:53.947Z,996.57
2023-03-04T09:07:52.057Z,996.57
2023-03-04T09:08:51.978Z,996.55
2023-03-04T09:09:51.985Z,996.58
2023-03-04T09:10:51.806Z,996.60
2023-03-04T09:11:51.743Z,996.54
2023-03-04T09:12:51.630Z,996.55
2023-03-04T09:13:51.572Z,996.56
2023-03-04T09:15:08.401Z,996.57
2023-03-04T09:15:51.466Z,996.55
2023-03-04T09:16:51.309Z,996.54
2023-03-04T09:17:51.205Z,996.58
2023-03-04T09:18:51.146Z,996.52
2023-03-04T09:19:51.032Z,996.53
2023-03-04T09:20:50.947Z,996.50
2023-03-04T09:21:50.873Z,996.51
2023-03-04T09:22:50.785Z,996.52
2023-03-04T09:23:50.701Z,996.51
2023-03-04T09:24:50.617Z,996.49
2023-03-04T09:25:50.541Z,996.52
2023-03-04T09:26:50.451Z,996.53
2023-03-04T09:27:50.372Z,996.54
2023-03-04T09:28:50.265Z,996.51
2023-03-04T09:29:50.331Z,996.52
2023-03-04T09:30:50.101Z,996.51
2023-03-04T09:31:50.014Z,996.47
2023-03-04T09:32:49.935Z,996.49
2023-03-04T09:33:49.839Z,996.47
2023-03-04T09:34:49.753Z,996.50
2023-03-04T09:35:49.686Z,996.48
2023-03-04T09:36:49.584Z,996.44
2023-03-04T09:37:49.510Z,996.44
2023-03-04T09:38:49.512Z,996.45
2023-03-04T09:39:49.329Z,996.47
2023-03-04T09:40:49.342Z,996.43
2023-03-04T09:41:49.159Z,996.47
2023-03-04T09:42:49.074Z,996.45
2023-03-04T09:43:49.012Z,996.49
2023-03-04T09:44:48.904Z,996.48
2023-03-04T09:45:48.821Z,996.46
2023-03-04T09:46:48.805Z,996.44
2023-03-04T09:47:48.650Z,996.47
2023-03-04T09:48:48.559Z,996.44
2023-03-04T09:49:48.479Z,996.47
2023-03-04T09:50:48.391Z,996.41
2023-03-04T09:51:48.306Z,996.42
2023-03-04T09:52:48.226Z,996.44
2023-03-04T09:53:48.236Z,996.43
2023-03-04T09:54:48.053Z,996.42
2023-03-04T09:55:47.970Z,996.45
2023-03-04T09:56:48.029Z,996.45
2023-03-04T09:57:47.804Z,996.49
2023-03-04T09:58:47.711Z,996.47
2023-03-04T09:59:47.664Z,996.46
2023-03-04T10:00:47.638Z,996.46
2023-03-04T10:01:47.457Z,996.45
2023-03-04T10:02:47.374Z,996.47
2023-03-04T10:03:47.354Z,996.45
2023-03-04T10:04:47.258Z,996.48
2023-03-04T10:05:47.116Z,996.45
2023-03-04T10:06:47.034Z,996.49
2023-03-04T10:07:46.949Z,996.49
2023-03-04T10:08:46.862Z,996.48
2023-03-04T10:09:46.777Z,996.50
2023-03-04T10:10:46.718Z,996.44
2023-03-04T10:11:46.607Z,996.43
2023-03-04T10:12:46.522Z,996.47
2023-03-04T10:13:46.440Z,996.49
2023-03-04T10:14:46.356Z,996.48
2023-03-04T10:15:46.291Z,996.52
2023-03-04T10:16:46.187Z,996.51
2023-03-04T10:17:46.100Z,996.49
2023-03-04T10:18:46.015Z,996.48
2023-03-04T10:19:45.930Z,996.43
2023-03-04T10:20:45.853Z,996.47
2023-03-04T10:21:45.760Z,996.45
2023-03-04T10:22:45.702Z,996.43
2023-03-04T10:23:45.599Z,996.45
2023-03-04T10:24:45.511Z,996.42
2023-03-04T10:25:45.424Z,996.45
2023-03-04T10:26:45.338Z,996.51
2023-03-04T10:27:45.253Z,996.45
2023-03-04T10:28:45.165Z,996.43
2023-03-04T10:29:46.336Z,996.42
2023-03-04T10:30:44.992Z,996.43
2023-03-04T10:31:45.093Z,996.45
2023-03-04T10:32:44.817Z,996.45
2023-03-04T10:33:44.737Z,996.44
2023-03-04T10:34:44.652Z,996.45
2023-03-04T10:35:44.643Z,996.45
2023-03-04T10:36:44.481Z,996.46
2023-03-04T10:37:44.395Z,996.44
2023-03-04T10:38:44.312Z,996.44
2023-03-04T10:39:44.224Z,996.43
2023-03-04T10:40:45.855Z,996.40
2023-03-04T10:41:44.192Z,996.40
2023-03-04T10:42:44.049Z,996.42
2023-03-04T10:43:43.882Z,996.43
2023-03-04T10:44:43.804Z,996.40
2023-03-04T10:45:43.735Z,996.39
2023-03-04T10:46:43.880Z,996.38
2023-03-04T10:47:43.563Z,996.39
2023-03-04T10:48:43.482Z,996.36
2023-03-04T10:49:43.377Z,996.35
2023-03-04T10:50:43.293Z,996.39
2023-03-04T10:51:43.203Z,996.39
2023-03-04T10:52:43.121Z,996.35
2023-03-04T10:53:43.038Z,996.33
2023-03-04T10:54:42.951Z,996.38
2023-03-04T10:55:42.867Z,996.34
2023-03-04T10:56:42.788Z,996.37
2023-03-04T10:57:42.696Z,996.33
2023-03-04T10:58:42.612Z,996.28
2023-03-04T10:59:42.730Z,996.31
2023-03-04T11:00:42.453Z,996.31
2023-03-04T11:01:42.356Z,996.30
2023-03-04T11:02:42.275Z,996.31
